MYST2: Pat Mayse Lake

Data processed at Wed May 22 2019 23:50


All information presented herein is the property of the government of the United States of America and may be revised or deleted at any time without prior notice.
Dissemination of this information without the expressed written consent of the Public Affairs Office, Tulsa District U.S. Army Corps of Engineers is strictly prohibited.
These data are gathered electronically and, as presented, have not undergone any form of quality control. These data are not guaranteed to be valid or correct.
Go to home page.
Go to station list.
Go to home page.

Downstream station:


Previous Day
Next Day
Current Day
    
SHEF ID:       MYST2     Pat Mayse Lake
STATION TYPE:  RESERVOIR
Flood Pool:  Bottom =   451.00, Top =   460.50

               PRECIP PRECIP(A) ELEVATION   STORAGE    INFLOW   RELEASE  AIR-TEMP  WIND-DIRWIND-SPEED REL-HUMID SOLAR-RAD   VOLTAGE  BAT-LOAD
                   in        in        ft     ac-ft       cfs       cfs         F       deg       mph         %      W/m2      volt      volt
              Ccp-Rev   Ccp-Rev   Ccp-Rev   Ccp-Rev  Rev-Regi  Rev-Regi   Ccp-Rev   Ccp-Rev   Ccp-Rev   Ccp-Rev   Ccp-Rev   Ccp-Rev   Ccp-Rev
(US/Central)
05/22 00:00      0.00      ----    453.64    133482       115       520     65.16    129.80     10.00     55.66      0.00     11.82     11.53
05/22 01:00      0.00      ----    453.63    133421       116       517     64.40    128.90     10.40     54.94      0.00     11.80     11.53
05/22 02:00      0.00      ----    453.63    133421       116       516     63.48    127.00      9.80     53.27      0.00     11.78     11.46
05/22 03:00      0.00      ----    453.63    133421       116       516     62.11    126.40      7.00     58.20      0.00     11.76     11.46
05/22 04:00      0.00      ----    453.62    133359       177       514     61.38    115.50      6.80     58.62      0.00     11.75     11.46
05/22 05:00      0.00      ----    453.61    133298       119       511     60.03     24.80      3.90     58.27      0.00     11.73     11.37
05/22 06:00      0.00      ----    453.61    133298       126       510     61.00     22.30      2.40     62.64      0.00     11.72     11.37
05/22 07:00      0.00      ----    453.60    133236       197       508     63.48     40.80      3.20     62.45      0.00     11.71     11.37
05/22 08:00      0.00      ----    453.60    133236       197       507     64.49     42.80      4.80     63.21      2.00     11.75     11.37
05/22 09:00      0.00      ----    453.60    133236       321       507     67.26     69.00      6.60     54.42    114.00     12.15     11.46
05/22 10:00      0.00      ----    453.59    133174       321       505     71.42     89.70      6.60     52.66    276.00     12.28     11.86
05/22 11:00      0.00      ----    453.60    133236       447       505     75.49    107.50      8.10     54.30    316.80     12.18     11.93
05/22 12:00      0.00      ----    453.59    133174       398       505     78.66    127.30     11.60     50.83    375.60     12.28     11.77
05/22 13:00      0.00      ----    453.60    133236       420       505     81.21    140.40     15.40     45.22    474.00     12.30     11.93
05/22 14:00      0.00      ----    453.61    133298       258       508     82.85    141.20     16.30     42.86    648.10     12.75     12.09
05/22 15:00      0.00      ----    453.59    133174       281       507     84.11    142.10     17.00     34.74    578.70     12.24     12.33
05/22 16:00      0.00      ----    453.60    133236       174       505     84.79    136.10     17.70     38.25    656.00     12.46     12.17
05/22 17:00      0.00      ----    453.58    133113       153       504     85.32    134.50     18.10     40.42    548.30     12.44     11.93
05/22 18:00      0.00      ----    453.58    133113       131       501     85.48    133.50     15.70     34.92    457.70     12.27     12.09
05/22 19:00      0.00      ----    453.57    133051       132       500     85.35    129.30     14.30     35.96    269.00     12.06     11.93
05/22 20:00      0.00      ----    453.56    132990       132       497     83.89    121.70      9.70     34.79     49.90     11.99     11.77
05/22 21:00      0.00      ----    453.56    132990        70       495     81.37    110.20      7.50     40.26      0.00     11.95     11.70
05/22 22:00      0.00      ----    453.55    132928        93       494     79.74    110.70      7.50     43.76      0.00     11.91     11.61
05/22 23:00      0.00      ----    453.55    132928       116       493     78.76    112.80      8.70     41.32      0.00     11.87     11.61